HZAFAS KMCO-LIMC
Flight info
| Callsign | HZAFAS |
|---|---|
| Flight time | N/A |
| Altitude | 31000 |
| Route | FATHE4 VIYAP Q87 JROSS Q135 RAPZZ PRONI PUNGO PHITZ DWSEN KW54A PREPI KB63C MONTK VITOL NANSO N55B RAFIN 4550N 4740N 4730N 4720N 4715N SEPAL UN470 LAPEX GALOF PECNO VALKU TIS MEBAK GIPNO BALSI GIGUS MEDAM LAPRI MOGBO TOP M135 ASTIG |
| Aircraft | MD11/H-SDFGHIRWXY/LB1D1 |
Departure
| Time | 2026-04-25 14:28 |
|---|---|
| Airport | Orlando International Airport (KMCO) |
Arrival
| Time | N/A |
|---|---|
| Airport | Milan Malpensa International Airport (LIMC) |
| Time | Latitude | Longitude | Altitude | Speed | Heading |
|---|---|---|---|---|---|
| 2026-04-25 13:16 | 28.43481 | -81.33103 | 107 ft | 0 kts | 269° |
| 2026-04-25 14:09 | 28.43481 | -81.33095 | 107 ft | 2 kts | 269° |
| 2026-04-25 14:10 | 28.43481 | -81.33072 | 107 ft | 2 kts | 269° |
| 2026-04-25 14:10 | 28.43482 | -81.33054 | 107 ft | 2 kts | 269° |
| 2026-04-25 14:10 | 28.43482 | -81.33038 | 107 ft | 2 kts | 269° |
| 2026-04-25 14:10 | 28.43482 | -81.33021 | 107 ft | 2 kts | 269° |
| 2026-04-25 14:11 | 28.43483 | -81.33004 | 107 ft | 2 kts | 270° |
| 2026-04-25 14:11 | 28.43481 | -81.32987 | 107 ft | 2 kts | 285° |
| 2026-04-25 14:11 | 28.43476 | -81.32971 | 107 ft | 2 kts | 297° |
| 2026-04-25 14:11 | 28.43468 | -81.32957 | 107 ft | 2 kts | 309° |
| 2026-04-25 14:12 | 28.43458 | -81.32945 | 107 ft | 2 kts | 322° |
| 2026-04-25 14:12 | 28.43445 | -81.32935 | 107 ft | 2 kts | 334° |
| 2026-04-25 14:12 | 28.43431 | -81.32929 | 107 ft | 2 kts | 346° |
| 2026-04-25 14:12 | 28.43416 | -81.32926 | 107 ft | 2 kts | 359° |
| 2026-04-25 14:13 | 28.43411 | -81.32926 | 107 ft | 0 kts | 1° |
| 2026-04-25 14:17 | 28.43417 | -81.32926 | 107 ft | 2 kts | 0° |
| 2026-04-25 14:17 | 28.43449 | -81.32927 | 107 ft | 7 kts | 359° |
| 2026-04-25 14:17 | 28.43522 | -81.32928 | 107 ft | 11 kts | 359° |
| 2026-04-25 14:18 | 28.43589 | -81.32929 | 107 ft | 3 kts | 0° |
| 2026-04-25 14:18 | 28.43590 | -81.32929 | 106 ft | 0 kts | 0° |
| 2026-04-25 14:18 | 28.43593 | -81.32929 | 107 ft | 1 kts | 0° |
| 2026-04-25 14:19 | 28.43620 | -81.32929 | 107 ft | 6 kts | 0° |
| 2026-04-25 14:19 | 28.43682 | -81.32929 | 107 ft | 11 kts | 359° |
| 2026-04-25 14:19 | 28.43771 | -81.32931 | 107 ft | 13 kts | 359° |
| 2026-04-25 14:19 | 28.43862 | -81.32933 | 107 ft | 13 kts | 359° |
| 2026-04-25 14:20 | 28.43953 | -81.32925 | 107 ft | 13 kts | 13° |
| 2026-04-25 14:20 | 28.44009 | -81.32899 | 107 ft | 13 kts | 28° |
| 2026-04-25 14:20 | 28.44124 | -81.32862 | 107 ft | 13 kts | 1° |
| 2026-04-25 14:20 | 28.44215 | -81.32863 | 107 ft | 13 kts | 359° |
| 2026-04-25 14:21 | 28.44306 | -81.32864 | 107 ft | 13 kts | 0° |
| 2026-04-25 14:21 | 28.44397 | -81.32864 | 107 ft | 13 kts | 360° |
| 2026-04-25 14:21 | 28.44488 | -81.32865 | 107 ft | 13 kts | 359° |
| 2026-04-25 14:21 | 28.44579 | -81.32866 | 107 ft | 12 kts | 359° |
| 2026-04-25 14:22 | 28.44665 | -81.32868 | 107 ft | 11 kts | 359° |
| 2026-04-25 14:22 | 28.44735 | -81.32870 | 107 ft | 9 kts | 359° |
| 2026-04-25 14:22 | 28.44794 | -81.32862 | 107 ft | 6 kts | 24° |
| 2026-04-25 14:22 | 28.44814 | -81.32825 | 107 ft | 3 kts | 90° |
| 2026-04-25 14:23 | 28.44814 | -81.32823 | 107 ft | 0 kts | 90° |
| 2026-04-25 14:25 | 28.44814 | -81.32819 | 107 ft | 2 kts | 90° |
| 2026-04-25 14:25 | 28.44814 | -81.32809 | 107 ft | 5 kts | 90° |
| 2026-04-25 14:26 | 28.44789 | -81.32694 | 107 ft | 8 kts | 161° |
| 2026-04-25 14:26 | 28.44734 | -81.32696 | 107 ft | 7 kts | 180° |
| 2026-04-25 14:26 | 28.44723 | -81.32696 | 107 ft | 0 kts | 180° |
| 2026-04-25 14:27 | 28.44706 | -81.32696 | 107 ft | 13 kts | 179° |
| 2026-04-25 14:27 | 28.44383 | -81.32693 | 107 ft | 79 kts | 179° |
| 2026-04-25 14:28 | 28.43623 | -81.32685 | 107 ft | 137 kts | 179° |
| 2026-04-25 14:28 | 28.42492 | -81.32673 | 108 ft | 184 kts | 180° |
| 2026-04-25 14:28 | 28.41150 | -81.32661 | 328 ft | 194 kts | 180° |
| 2026-04-25 14:28 | 28.39804 | -81.32695 | 702 ft | 195 kts | 189° |
| 2026-04-25 14:29 | 28.38484 | -81.33151 | 1069 ft | 200 kts | 206° |
| 2026-04-25 14:29 | 28.37212 | -81.33843 | 1532 ft | 200 kts | 205° |
| 2026-04-25 14:29 | 28.35943 | -81.34510 | 1877 ft | 206 kts | 207° |
| 2026-04-25 14:29 | 28.34827 | -81.35581 | 1999 ft | 217 kts | 240° |
| 2026-04-25 14:30 | 28.34283 | -81.37211 | 2139 ft | 232 kts | 258° |
| 2026-04-25 14:30 | 28.34014 | -81.41132 | 2424 ft | 270 kts | 285° |
| 2026-04-25 14:30 | 28.34876 | -81.43092 | 2734 ft | 283 kts | 313° |
| 2026-04-25 14:31 | 28.36443 | -81.44447 | 3130 ft | 295 kts | 338° |
| 2026-04-25 14:31 | 28.38463 | -81.44951 | 3595 ft | 303 kts | 2° |
| 2026-04-25 14:31 | 28.40540 | -81.44467 | 4150 ft | 307 kts | 21° |
| 2026-04-25 14:31 | 28.42569 | -81.43675 | 4789 ft | 312 kts | 18° |
| 2026-04-25 14:32 | 28.44651 | -81.42944 | 5525 ft | 313 kts | 17° |
| 2026-04-25 14:32 | 28.46717 | -81.42222 | 6236 ft | 314 kts | 17° |
| 2026-04-25 14:32 | 28.48802 | -81.41483 | 6923 ft | 316 kts | 17° |
| 2026-04-25 14:32 | 28.50915 | -81.40729 | 7590 ft | 318 kts | 17° |
| 2026-04-25 14:33 | 28.53040 | -81.39967 | 8262 ft | 320 kts | 16° |
| 2026-04-25 14:33 | 28.55171 | -81.39205 | 8908 ft | 322 kts | 16° |
| 2026-04-25 14:33 | 28.57317 | -81.38435 | 9550 ft | 324 kts | 15° |
| 2026-04-25 14:33 | 28.59463 | -81.37666 | 10153 ft | 327 kts | 15° |
| 2026-04-25 14:34 | 28.61689 | -81.36868 | 10377 ft | 343 kts | 15° |
| 2026-04-25 14:34 | 28.64049 | -81.36022 | 10476 ft | 363 kts | 16° |
| 2026-04-25 14:34 | 28.66503 | -81.35140 | 10722 ft | 377 kts | 16° |
| 2026-04-25 14:34 | 28.69031 | -81.34232 | 11237 ft | 382 kts | 16° |
| 2026-04-25 14:35 | 28.71558 | -81.33326 | 11817 ft | 386 kts | 15° |
| 2026-04-25 14:35 | 28.74148 | -81.32394 | 12426 ft | 388 kts | 15° |
| 2026-04-25 14:35 | 28.76741 | -81.31465 | 12984 ft | 391 kts | 15° |
| 2026-04-25 14:35 | 28.79322 | -81.30545 | 13566 ft | 394 kts | 15° |
| 2026-04-25 14:36 | 28.81968 | -81.29659 | 14074 ft | 397 kts | 11° |
| 2026-04-25 14:36 | 28.84702 | -81.29126 | 14596 ft | 397 kts | 3° |
| 2026-04-25 14:36 | 28.87458 | -81.29054 | 15061 ft | 399 kts | 355° |
| 2026-04-25 14:36 | 28.90233 | -81.29309 | 15416 ft | 402 kts | 353° |
| 2026-04-25 14:37 | 28.93035 | -81.29585 | 15637 ft | 403 kts | 353° |
| 2026-04-25 14:37 | 28.95852 | -81.29838 | 15881 ft | 404 kts | 354° |
| 2026-04-25 14:37 | 28.98632 | -81.30077 | 15989 ft | 405 kts | 354° |
| 2026-04-25 14:37 | 29.01482 | -81.30347 | 15986 ft | 404 kts | 352° |
| 2026-04-25 14:38 | 29.04281 | -81.30670 | 15989 ft | 403 kts | 352° |
| 2026-04-25 14:38 | 29.07055 | -81.30993 | 15993 ft | 403 kts | 352° |
| 2026-04-25 14:38 | 29.09844 | -81.31310 | 15987 ft | 403 kts | 352° |
| 2026-04-25 14:38 | 29.12656 | -81.31590 | 15990 ft | 403 kts | 354° |
| 2026-04-25 14:39 | 29.15492 | -81.31747 | 15989 ft | 404 kts | 355° |
| 2026-04-25 14:39 | 29.18162 | -81.31884 | 15992 ft | 404 kts | 355° |
| 2026-04-25 14:39 | 29.20988 | -81.32039 | 15989 ft | 405 kts | 355° |
| 2026-04-25 14:39 | 29.23713 | -81.32194 | 15982 ft | 405 kts | 355° |
| 2026-04-25 14:40 | 29.26548 | -81.32361 | 15983 ft | 405 kts | 355° |
| 2026-04-25 14:40 | 29.29340 | -81.32527 | 15983 ft | 405 kts | 355° |
| 2026-04-25 14:40 | 29.32155 | -81.32698 | 15981 ft | 405 kts | 355° |
| 2026-04-25 14:40 | 29.34987 | -81.32870 | 15981 ft | 404 kts | 355° |
| 2026-04-25 14:41 | 29.37799 | -81.33040 | 15993 ft | 404 kts | 355° |
| 2026-04-25 14:41 | 29.40603 | -81.33209 | 15990 ft | 404 kts | 355° |
| 2026-04-25 14:41 | 29.43427 | -81.33381 | 15970 ft | 404 kts | 355° |
| 2026-04-25 14:41 | 29.46241 | -81.33550 | 16035 ft | 405 kts | 355° |
| 2026-04-25 14:42 | 29.49054 | -81.33719 | 15997 ft | 404 kts | 355° |
| 2026-04-25 14:42 | 29.50915 | -81.33830 | 15968 ft | 404 kts | 355° |
| 2026-04-25 14:42 | 29.54667 | -81.34056 | 15989 ft | 405 kts | 355° |
| 2026-04-25 14:42 | 29.57493 | -81.34226 | 15985 ft | 404 kts | 355° |
| 2026-04-25 14:43 | 29.60324 | -81.34396 | 15958 ft | 405 kts | 355° |
| 2026-04-25 14:43 | 29.63152 | -81.34567 | 15983 ft | 405 kts | 355° |
| 2026-04-25 14:43 | 29.65934 | -81.34734 | 15971 ft | 404 kts | 355° |
| 2026-04-25 14:43 | 29.68776 | -81.34897 | 15972 ft | 404 kts | 355° |
| 2026-04-25 14:44 | 29.71578 | -81.35060 | 16117 ft | 407 kts | 355° |
| 2026-04-25 14:44 | 29.74442 | -81.35218 | 16699 ft | 408 kts | 355° |
| 2026-04-25 14:44 | 29.77281 | -81.35380 | 17100 ft | 412 kts | 355° |
| 2026-04-25 14:44 | 29.80160 | -81.35547 | 17557 ft | 416 kts | 355° |
| 2026-04-25 14:45 | 29.83066 | -81.35717 | 18000 ft | 419 kts | 355° |
| 2026-04-25 14:45 | 29.85972 | -81.35888 | 18452 ft | 421 kts | 355° |
| 2026-04-25 14:45 | 29.88934 | -81.36060 | 18908 ft | 424 kts | 355° |
| 2026-04-25 14:45 | 29.91895 | -81.36230 | 19336 ft | 426 kts | 355° |
| 2026-04-25 14:46 | 29.94851 | -81.36399 | 19776 ft | 428 kts | 355° |
| 2026-04-25 14:46 | 29.97851 | -81.36571 | 20197 ft | 431 kts | 355° |
| 2026-04-25 14:46 | 30.00831 | -81.36742 | 20600 ft | 433 kts | 355° |
| 2026-04-25 14:46 | 30.03851 | -81.36916 | 21012 ft | 436 kts | 356° |
| 2026-04-25 14:47 | 30.06886 | -81.37091 | 21387 ft | 439 kts | 356° |
| 2026-04-25 14:47 | 30.08950 | -81.37209 | 21657 ft | 440 kts | 356° |
| 2026-04-25 14:47 | 30.13050 | -81.37445 | 22202 ft | 443 kts | 356° |
| 2026-04-25 14:47 | 30.16131 | -81.37623 | 22559 ft | 445 kts | 356° |
| 2026-04-25 14:48 | 30.18979 | -81.37788 | 22929 ft | 447 kts | 356° |
| 2026-04-25 14:48 | 30.21854 | -81.37954 | 23274 ft | 449 kts | 356° |
| 2026-04-25 14:48 | 30.24949 | -81.38132 | 23627 ft | 451 kts | 356° |
| 2026-04-25 14:48 | 30.28135 | -81.38317 | 23978 ft | 453 kts | 356° |
| 2026-04-25 14:49 | 30.31283 | -81.38497 | 24324 ft | 455 kts | 356° |
| 2026-04-25 14:49 | 30.34434 | -81.38678 | 24663 ft | 457 kts | 356° |
| 2026-04-25 14:49 | 30.37645 | -81.38863 | 24961 ft | 460 kts | 356° |
| 2026-04-25 14:49 | 30.40845 | -81.39047 | 25299 ft | 461 kts | 356° |
| 2026-04-25 14:50 | 30.44016 | -81.39230 | 25613 ft | 462 kts | 356° |
| 2026-04-25 14:50 | 30.47278 | -81.39418 | 25917 ft | 464 kts | 357° |
| 2026-04-25 14:50 | 30.50504 | -81.39590 | 26268 ft | 464 kts | 357° |
| 2026-04-25 14:50 | 30.53706 | -81.39758 | 26583 ft | 466 kts | 357° |
| 2026-04-25 14:51 | 30.56969 | -81.39929 | 26881 ft | 467 kts | 357° |
| 2026-04-25 14:51 | 30.60200 | -81.40099 | 27143 ft | 469 kts | 357° |
| 2026-04-25 14:51 | 30.63477 | -81.40274 | 27448 ft | 470 kts | 357° |
| 2026-04-25 14:51 | 30.66730 | -81.40447 | 27706 ft | 472 kts | 357° |
| 2026-04-25 14:52 | 30.70002 | -81.40623 | 28112 ft | 470 kts | 358° |
| 2026-04-25 14:52 | 30.73276 | -81.40797 | 28507 ft | 468 kts | 358° |
| 2026-04-25 14:52 | 30.76519 | -81.40969 | 28891 ft | 467 kts | 358° |
| 2026-04-25 14:52 | 30.78671 | -81.41083 | 29133 ft | 466 kts | 358° |
| 2026-04-25 14:53 | 30.83011 | -81.41312 | 29596 ft | 465 kts | 358° |
| 2026-04-25 14:53 | 30.86222 | -81.41485 | 29921 ft | 464 kts | 358° |
| 2026-04-25 14:53 | 30.89447 | -81.41656 | 30254 ft | 463 kts | 358° |
| 2026-04-25 14:53 | 30.92655 | -81.41823 | 30532 ft | 462 kts | 357° |
| 2026-04-25 14:54 | 30.95856 | -81.41995 | 30772 ft | 462 kts | 357° |
| 2026-04-25 14:54 | 30.99104 | -81.42172 | 30951 ft | 463 kts | 357° |
| 2026-04-25 14:54 | 31.05529 | -81.42515 | 30950 ft | 468 kts | 357° |
| 2026-04-25 14:55 | 31.12120 | -81.42864 | 30955 ft | 472 kts | 357° |
| 2026-04-25 14:55 | 31.18445 | -81.43201 | 30954 ft | 472 kts | 357° |
| 2026-04-25 14:56 | 31.25037 | -81.42898 | 30965 ft | 473 kts | 10° |
| 2026-04-25 14:56 | 31.30843 | -81.40717 | 30962 ft | 472 kts | 24° |
| 2026-04-25 14:57 | 31.36795 | -81.37366 | 30962 ft | 474 kts | 24° |
| 2026-04-25 14:57 | 31.42765 | -81.34063 | 30965 ft | 475 kts | 24° |
| 2026-04-25 14:58 | 31.48753 | -81.30792 | 30940 ft | 475 kts | 23° |
| 2026-04-25 14:58 | 31.54750 | -81.27533 | 30929 ft | 475 kts | 23° |
| 2026-04-25 14:59 | 31.60713 | -81.24289 | 30928 ft | 474 kts | 23° |
| 2026-04-25 14:59 | 31.66712 | -81.21036 | 30928 ft | 474 kts | 23° |
| 2026-04-25 15:00 | 31.72697 | -81.17767 | 30931 ft | 473 kts | 23° |
| 2026-04-25 15:00 | 31.78646 | -81.14490 | 30936 ft | 474 kts | 23° |
| 2026-04-25 15:01 | 31.84643 | -81.11195 | 30911 ft | 475 kts | 23° |
| 2026-04-25 15:01 | 31.90634 | -81.07912 | 30934 ft | 476 kts | 23° |
| 2026-04-25 15:02 | 31.96606 | -81.04639 | 30938 ft | 475 kts | 23° |
| 2026-04-25 15:02 | 32.02591 | -81.01340 | 30939 ft | 474 kts | 24° |
| 2026-04-25 15:03 | 32.08564 | -80.97958 | 30941 ft | 476 kts | 24° |
| 2026-04-25 15:03 | 32.14537 | -80.94585 | 30937 ft | 476 kts | 24° |
| 2026-04-25 15:04 | 32.19881 | -80.91572 | 30957 ft | 477 kts | 24° |
| 2026-04-25 15:04 | 32.25872 | -80.88197 | 30949 ft | 477 kts | 24° |
| 2026-04-25 15:05 | 32.31882 | -80.84811 | 30947 ft | 477 kts | 24° |
| 2026-04-25 15:06 | 32.39913 | -80.80288 | 30955 ft | 476 kts | 24° |
| 2026-04-25 15:06 | 32.45916 | -80.76911 | 30957 ft | 478 kts | 23° |
| 2026-04-25 15:07 | 32.51938 | -80.73522 | 30952 ft | 478 kts | 24° |
| 2026-04-25 15:07 | 32.57922 | -80.70152 | 30940 ft | 476 kts | 23° |
| 2026-04-25 15:08 | 32.63878 | -80.66796 | 30920 ft | 476 kts | 23° |
| 2026-04-25 15:08 | 32.69755 | -80.63121 | 30938 ft | 480 kts | 32° |
| 2026-04-25 15:09 | 32.74837 | -80.57907 | 30935 ft | 486 kts | 46° |
| 2026-04-25 15:09 | 32.81393 | -80.48774 | 30950 ft | 484 kts | 47° |
| 2026-04-25 15:10 | 32.85770 | -80.42738 | 30958 ft | 483 kts | 46° |
| 2026-04-25 15:11 | 32.92392 | -80.33668 | 30917 ft | 483 kts | 46° |
| 2026-04-25 15:11 | 32.96746 | -80.27712 | 30928 ft | 484 kts | 46° |
| 2026-04-25 15:12 | 33.03399 | -80.18630 | 30929 ft | 487 kts | 47° |
| 2026-04-25 15:12 | 33.06355 | -80.14591 | 30932 ft | 487 kts | 46° |
| 2026-04-25 15:13 | 33.14502 | -80.03480 | 30939 ft | 483 kts | 47° |
| 2026-04-25 15:14 | 33.18469 | -79.98074 | 30937 ft | 484 kts | 46° |
| 2026-04-25 15:14 | 33.23064 | -79.91815 | 30947 ft | 485 kts | 46° |
| 2026-04-25 15:15 | 33.27499 | -79.85784 | 30940 ft | 486 kts | 46° |
| 2026-04-25 15:15 | 33.30626 | -79.81527 | 30922 ft | 488 kts | 46° |
| 2026-04-25 15:16 | 33.37115 | -79.72559 | 30920 ft | 488 kts | 47° |
| 2026-04-25 15:16 | 33.47181 | -79.58502 | 30905 ft | 488 kts | 47° |
| 2026-04-25 15:17 | 33.53814 | -79.49272 | 30915 ft | 489 kts | 47° |
| 2026-04-25 15:18 | 33.58289 | -79.43053 | 30912 ft | 490 kts | 47° |
| 2026-04-25 15:18 | 33.64922 | -79.33839 | 30935 ft | 491 kts | 48° |
| 2026-04-25 15:19 | 33.67948 | -79.29639 | 30917 ft | 491 kts | 48° |
| 2026-04-25 15:19 | 33.73584 | -79.21639 | 30953 ft | 491 kts | 48° |
| 2026-04-25 15:20 | 33.77997 | -79.15368 | 30952 ft | 490 kts | 48° |
| 2026-04-25 15:20 | 33.82417 | -79.09098 | 30945 ft | 491 kts | 48° |
| 2026-04-25 15:21 | 33.86822 | -79.02861 | 30944 ft | 492 kts | 49° |
| 2026-04-25 15:21 | 33.91256 | -78.96585 | 30945 ft | 492 kts | 48° |
| 2026-04-25 15:22 | 33.95665 | -78.90346 | 30940 ft | 491 kts | 48° |
| 2026-04-25 15:22 | 34.00112 | -78.84057 | 30934 ft | 491 kts | 48° |
| 2026-04-25 15:23 | 34.04530 | -78.77821 | 30943 ft | 492 kts | 48° |
| 2026-04-25 15:23 | 34.08975 | -78.71552 | 30935 ft | 492 kts | 48° |
| 2026-04-25 15:24 | 34.13417 | -78.65292 | 30944 ft | 491 kts | 48° |
| 2026-04-25 15:24 | 34.16373 | -78.61114 | 30951 ft | 490 kts | 48° |
| 2026-04-25 15:25 | 34.23328 | -78.51159 | 30916 ft | 491 kts | 52° |
| 2026-04-25 15:25 | 34.26929 | -78.44131 | 30926 ft | 493 kts | 63° |
| 2026-04-25 15:26 | 34.30081 | -78.35857 | 30909 ft | 492 kts | 64° |
| 2026-04-25 15:26 | 34.32916 | -78.28315 | 30913 ft | 492 kts | 64° |
| 2026-04-25 15:27 | 34.34984 | -78.22861 | 30921 ft | 491 kts | 65° |
| 2026-04-25 15:28 | 34.39116 | -78.11971 | 30923 ft | 491 kts | 64° |
| 2026-04-25 15:28 | 34.41984 | -78.04445 | 30932 ft | 491 kts | 64° |
| 2026-04-25 15:29 | 34.44869 | -77.96881 | 30947 ft | 490 kts | 64° |
| 2026-04-25 15:29 | 34.47733 | -77.89378 | 30930 ft | 491 kts | 64° |
| 2026-04-25 15:30 | 34.50609 | -77.81866 | 30923 ft | 491 kts | 64° |
| 2026-04-25 15:30 | 34.53474 | -77.74394 | 30925 ft | 490 kts | 64° |
| 2026-04-25 15:31 | 34.56846 | -77.67215 | 30915 ft | 491 kts | 52° |
| 2026-04-25 15:31 | 34.61465 | -77.61163 | 30945 ft | 491 kts | 42° |
| 2026-04-25 15:32 | 34.66459 | -77.55484 | 30938 ft | 491 kts | 43° |
| 2026-04-25 15:32 | 34.71380 | -77.49787 | 30939 ft | 490 kts | 42° |
| 2026-04-25 15:33 | 34.78793 | -77.41177 | 30942 ft | 490 kts | 42° |
| 2026-04-25 15:33 | 34.83704 | -77.35476 | 30940 ft | 490 kts | 42° |
| 2026-04-25 15:34 | 34.88644 | -77.29743 | 30931 ft | 490 kts | 43° |
| 2026-04-25 15:34 | 34.91933 | -77.25926 | 30943 ft | 490 kts | 43° |
| 2026-04-25 15:35 | 35.00999 | -77.15414 | 30944 ft | 492 kts | 42° |
| 2026-04-25 15:36 | 35.08455 | -77.06786 | 30938 ft | 491 kts | 42° |
| 2026-04-25 15:36 | 35.13420 | -77.01033 | 30940 ft | 491 kts | 42° |
| 2026-04-25 15:37 | 35.18088 | -76.95636 | 30940 ft | 491 kts | 42° |
| 2026-04-25 15:37 | 35.22699 | -76.90278 | 30930 ft | 491 kts | 43° |
| 2026-04-25 15:38 | 35.27501 | -76.84591 | 30928 ft | 490 kts | 43° |
| 2026-04-25 15:38 | 35.32407 | -76.78777 | 30936 ft | 492 kts | 42° |
| 2026-04-25 15:39 | 35.37318 | -76.72980 | 30892 ft | 493 kts | 42° |
| 2026-04-25 15:39 | 35.42274 | -76.67134 | 30880 ft | 494 kts | 42° |
| 2026-04-25 15:40 | 35.45581 | -76.63233 | 30883 ft | 494 kts | 42° |
| 2026-04-25 15:40 | 35.52151 | -76.55489 | 30878 ft | 493 kts | 41° |
| 2026-04-25 15:41 | 35.57108 | -76.49640 | 30874 ft | 494 kts | 41° |
| 2026-04-25 15:41 | 35.62339 | -76.44134 | 30874 ft | 495 kts | 35° |
| 2026-04-25 15:42 | 35.67874 | -76.39217 | 30872 ft | 493 kts | 33° |
| 2026-04-25 15:42 | 35.73481 | -76.34338 | 30876 ft | 493 kts | 33° |
| 2026-04-25 15:43 | 35.79066 | -76.29487 | 30879 ft | 493 kts | 33° |
| 2026-04-25 15:43 | 35.84684 | -76.24596 | 30884 ft | 493 kts | 33° |
| 2026-04-25 15:44 | 35.90313 | -76.19702 | 30887 ft | 493 kts | 33° |
| 2026-04-25 15:44 | 35.95911 | -76.14832 | 30897 ft | 494 kts | 32° |
| 2026-04-25 15:45 | 36.01548 | -76.09938 | 30902 ft | 496 kts | 32° |
| 2026-04-25 15:45 | 36.05298 | -76.06682 | 30900 ft | 497 kts | 32° |
| 2026-04-25 15:46 | 36.12780 | -76.00187 | 30895 ft | 496 kts | 32° |
| 2026-04-25 15:46 | 36.18407 | -75.95303 | 30896 ft | 495 kts | 32° |
| 2026-04-25 15:47 | 36.24094 | -75.90403 | 30903 ft | 494 kts | 30° |
| 2026-04-25 15:47 | 36.29932 | -75.85913 | 30893 ft | 494 kts | 27° |
| 2026-04-25 15:48 | 36.35874 | -75.81641 | 30891 ft | 494 kts | 26° |
| 2026-04-25 15:48 | 36.41804 | -75.77409 | 30887 ft | 494 kts | 26° |
| 2026-04-25 15:49 | 36.47755 | -75.73163 | 30892 ft | 494 kts | 26° |
| 2026-04-25 15:49 | 36.53720 | -75.68912 | 30890 ft | 494 kts | 26° |
| 2026-04-25 15:50 | 36.59694 | -75.64656 | 30889 ft | 495 kts | 26° |
| 2026-04-25 15:50 | 36.65693 | -75.60384 | 30879 ft | 495 kts | 26° |
| 2026-04-25 15:51 | 36.69652 | -75.57562 | 30881 ft | 494 kts | 26° |
| 2026-04-25 15:51 | 36.77626 | -75.51885 | 30904 ft | 495 kts | 26° |
| 2026-04-25 15:52 | 36.83609 | -75.47627 | 30887 ft | 496 kts | 26° |
| 2026-04-25 15:52 | 36.89565 | -75.43389 | 30882 ft | 495 kts | 26° |
| 2026-04-25 15:53 | 36.95541 | -75.39136 | 30886 ft | 495 kts | 26° |
| 2026-04-25 15:53 | 37.01506 | -75.34892 | 30878 ft | 495 kts | 26° |
| 2026-04-25 15:54 | 37.07501 | -75.30597 | 30903 ft | 495 kts | 26° |
| 2026-04-25 15:54 | 37.13465 | -75.26247 | 30906 ft | 494 kts | 26° |
| 2026-04-25 15:55 | 37.19407 | -75.21918 | 30910 ft | 496 kts | 26° |
| 2026-04-25 15:55 | 37.25357 | -75.17591 | 30914 ft | 495 kts | 26° |
| 2026-04-25 15:56 | 37.31282 | -75.13279 | 30914 ft | 495 kts | 26° |
| 2026-04-25 15:56 | 37.37273 | -75.08932 | 30900 ft | 495 kts | 26° |
| 2026-04-25 15:57 | 37.42211 | -75.05343 | 30915 ft | 496 kts | 26° |
| 2026-04-25 15:57 | 37.46184 | -75.02457 | 30917 ft | 495 kts | 26° |
| 2026-04-25 15:58 | 37.59752 | -74.92606 | 30907 ft | 494 kts | 25° |
| 2026-04-25 15:59 | 37.66770 | -74.87647 | 30923 ft | 493 kts | 22° |
| 2026-04-25 15:59 | 37.70810 | -74.85066 | 30914 ft | 493 kts | 22° |